EKCH/CPH METAR and TAF weather

Enter ICAO airport designator
Station Type Date Time Source
EKCH METAR 2019/05/25 14:50 UTC NOAA

EKCH 251450Z AUTO 29012KT 260V320 9999 BKN038/// 18/08 Q1011 NOSIG


Station Type Date Time Source
EKCH Decoded METAR 2019/05/25 14:50 UTC NOAA

Koebenhavn / Kastrup, Denmark (EKCH) 55-37N 012-39E 5M
May 25, 2019 - 10:50 AM EDT / 2019.05.25 1450 UTC
Wind: from the WNW (290 degrees) at 14 MPH (12 KT) (direction variable):0
Visibility: greater than 7 mile(s):0
Sky conditions: mostly cloudy
Temperature: 64 F (18 C)
Dew Point: 46 F (8 C)
Relative Humidity: 51%
Pressure (altimeter): 29.85 in. Hg (1011 hPa)
ob: EKCH 251450Z AUTO 29012KT 260V320 9999 BKN038/// 18/08 Q1011 NOSIG
cycle: 15

Station Type Date Time Source
EKCH TAF 2019/05/25 12:09 UTC NOAA

TAF EKCH 251102Z 2512/2612 27012KT 9999 BKN025
TEMPO 2605/2610 -RADZ BKN014

Example: see airport list